KCWA/CWA METAR and TAF weather

Enter ICAO airport designator
Station Type Date Time Source
KCWA METAR 2022/01/25 04:15 UTC NOAA

KCWA 250415Z AUTO 32008KT 10SM CLR M17/M22 A2998 RMK AO2


Station Type Date Time Source
KCWA Decoded METAR 2022/01/25 04:15 UTC NOAA

Mosinee / Central Wisconsin, WI, United States (KCWA) 44-47N 089-40W
Jan 24, 2022 - 11:15 PM EST / 2022.01.25 0415 UTC
Wind: from the NW (320 degrees) at 9 MPH (8 KT):0
Visibility: 10 mile(s):0
Sky conditions: clear
Temperature: 1 F (-17 C)
Windchill: -13 F (-25 C):2
Dew Point: -7 F (-22 C)
Relative Humidity: 65%
Pressure (altimeter): 29.98 in. Hg (1015 hPa)
ob: KCWA 250415Z AUTO 32008KT 10SM CLR M17/M22 A2998 RMK AO2
cycle: 4

Station Type Date Time Source
KCWA TAF 2022/01/24 20:06 UTC NOAA

TAF
AMD KCWA 242003Z 2420/2518 32011G20KT P6SM BKN035
FM242300 31008G13KT P6SM BKN035
FM250300 31006KT P6SM SKC
FM251500 30008G13KT P6SM SKC

Example: see airport list